sensor_id;sensor_type;location;lat;lon;timestamp;pressure;altitude;pressure_sealevel;temperature;humidity
31285;BME280;56605;51.516;6.742;2023-06-10T00:00:48;101221.25;;;20.70;100.00
31285;BME280;56605;51.516;6.742;2023-06-10T00:03:13;101224.13;;;20.49;100.00
31285;BME280;56605;51.516;6.742;2023-06-10T00:05:39;101214.91;;;20.57;100.00
31285;BME280;56605;51.516;6.742;2023-06-10T00:08:06;101218.78;;;20.68;100.00
31285;BME280;56605;51.516;6.742;2023-06-10T00:10:34;101217.03;;;20.55;100.00
31285;BME280;56605;51.516;6.742;2023-06-10T00:13:04;101218.81;;;20.61;100.00
31285;BME280;56605;51.516;6.742;2023-06-10T00:15:30;101217.81;;;20.56;100.00
31285;BME280;56605;51.516;6.742;2023-06-10T00:17:55;101224.34;;;20.48;100.00
31285;BME280;56605;51.516;6.742;2023-06-10T00:20:21;101219.94;;;20.53;100.00
31285;BME280;56605;51.516;6.742;2023-06-10T00:22:50;101210.81;;;20.48;100.00
31285;BME280;56605;51.516;6.742;2023-06-10T00:25:16;101214.75;;;20.26;100.00
31285;BME280;56605;51.516;6.742;2023-06-10T00:27:41;101221.16;;;20.32;100.00
31285;BME280;56605;51.516;6.742;2023-06-10T00:30:07;101224.03;;;20.37;100.00
31285;BME280;56605;51.516;6.742;2023-06-10T00:32:36;101229.41;;;20.19;100.00
31285;BME280;56605;51.516;6.742;2023-06-10T00:35:02;101212.31;;;20.44;100.00
31285;BME280;56605;51.516;6.742;2023-06-10T00:37:28;101220.66;;;20.42;100.00
31285;BME280;56605;51.516;6.742;2023-06-10T00:39:57;101224.72;;;20.33;100.00
31285;BME280;56605;51.516;6.742;2023-06-10T00:42:22;101229.69;;;20.10;100.00
31285;BME280;56605;51.516;6.742;2023-06-10T00:44:50;101227.25;;;20.27;100.00
31285;BME280;56605;51.516;6.742;2023-06-10T00:47:16;101225.19;;;20.23;100.00
31285;BME280;56605;51.516;6.742;2023-06-10T00:49:41;101227.78;;;20.11;100.00
31285;BME280;56605;51.516;6.742;2023-06-10T00:52:08;101232.88;;;20.00;100.00
31285;BME280;56605;51.516;6.742;2023-06-10T00:54:33;101233.19;;;19.79;100.00
31285;BME280;56605;51.516;6.742;2023-06-10T00:57:01;101230.25;;;19.80;100.00
31285;BME280;56605;51.516;6.742;2023-06-10T00:59:28;101231.16;;;19.67;100.00
31285;BME280;56605;51.516;6.742;2023-06-10T01:01:54;101228.41;;;19.74;100.00
31285;BME280;56605;51.516;6.742;2023-06-10T01:04:20;101224.91;;;19.67;100.00
31285;BME280;56605;51.516;6.742;2023-06-10T01:07:17;101227.03;;;19.64;100.00
31285;BME280;56605;51.516;6.742;2023-06-10T01:10:06;101227.69;;;19.60;100.00
31285;BME280;56605;51.516;6.742;2023-06-10T01:12:49;101231.44;;;19.52;100.00
31285;BME280;56605;51.516;6.742;2023-06-10T01:15:17;101234.59;;;19.49;100.00
31285;BME280;56605;51.516;6.742;2023-06-10T01:17:59;101233.56;;;19.50;100.00
31285;BME280;56605;51.516;6.742;2023-06-10T01:20:27;101234.59;;;19.49;100.00
31285;BME280;56605;51.516;6.742;2023-06-10T01:22:55;101236.91;;;19.38;100.00
31285;BME280;56605;51.516;6.742;2023-06-10T01:25:23;101231.13;;;19.28;100.00
31285;BME280;56605;51.516;6.742;2023-06-10T01:30:50;101238.28;;;19.09;100.00
31285;BME280;56605;51.516;6.742;2023-06-10T01:33:25;101245.59;;;19.08;100.00
31285;BME280;56605;51.516;6.742;2023-06-10T01:35:52;101230.38;;;19.00;100.00
31285;BME280;56605;51.516;6.742;2023-06-10T01:38:19;101236.63;;;19.01;100.00
31285;BME280;56605;51.516;6.742;2023-06-10T01:40:46;101235.56;;;19.02;100.00
31285;BME280;56605;51.516;6.742;2023-06-10T01:43:13;101241.81;;;19.03;100.00
31285;BME280;56605;51.516;6.742;2023-06-10T01:45:38;101234.53;;;18.96;100.00
31285;BME280;56605;51.516;6.742;2023-06-10T01:48:04;101238.31;;;18.75;100.00
31285;BME280;56605;51.516;6.742;2023-06-10T01:50:29;101239.97;;;18.89;100.00
31285;BME280;56605;51.516;6.742;2023-06-10T01:52:57;101245.63;;;18.74;100.00
31285;BME280;56605;51.516;6.742;2023-06-10T01:55:22;101232.13;;;18.61;100.00
31285;BME280;56605;51.516;6.742;2023-06-10T01:57:47;101227.94;;;18.58;100.00
31285;BME280;56605;51.516;6.742;2023-06-10T02:00:13;101230.00;;;18.76;100.00
31285;BME280;56605;51.516;6.742;2023-06-10T02:02:39;101240.22;;;18.61;100.00
31285;BME280;56605;51.516;6.742;2023-06-10T02:05:04;101237.94;;;18.58;100.00
31285;BME280;56605;51.516;6.742;2023-06-10T02:07:30;101245.44;;;18.49;100.00
31285;BME280;56605;51.516;6.742;2023-06-10T02:09:55;101240.63;;;18.37;100.00
31285;BME280;56605;51.516;6.742;2023-06-10T02:12:20;101244.38;;;18.30;100.00
31285;BME280;56605;51.516;6.742;2023-06-10T02:14:46;101235.63;;;18.48;100.00
31285;BME280;56605;51.516;6.742;2023-06-10T02:17:11;101238.78;;;18.52;100.00
31285;BME280;56605;51.516;6.742;2023-06-10T02:19:38;101247.50;;;18.47;100.00
31285;BME280;56605;51.516;6.742;2023-06-10T02:22:10;101250.19;;;18.27;100.00
31285;BME280;56605;51.516;6.742;2023-06-10T02:24:36;101253.94;;;18.39;100.00
31285;BME280;56605;51.516;6.742;2023-06-10T02:27:03;101256.03;;;18.37;100.00
31285;BME280;56605;51.516;6.742;2023-06-10T02:29:32;101247.91;;;18.23;100.00
31285;BME280;56605;51.516;6.742;2023-06-10T02:31:58;101252.88;;;18.13;100.00
31285;BME280;56605;51.516;6.742;2023-06-10T02:34:23;101253.53;;;18.35;100.00
31285;BME280;56605;51.516;6.742;2023-06-10T02:36:48;101246.69;;;18.33;100.00
31285;BME280;56605;51.516;6.742;2023-06-10T02:39:16;101243.75;;;18.28;100.00
31285;BME280;56605;51.516;6.742;2023-06-10T02:41:41;101244.16;;;18.38;100.00
31285;BME280;56605;51.516;6.742;2023-06-10T02:44:07;101243.97;;;18.33;100.00
31285;BME280;56605;51.516;6.742;2023-06-10T02:46:32;101250.19;;;18.27;100.00
31285;BME280;56605;51.516;6.742;2023-06-10T02:48:57;101247.22;;;18.01;100.00
31285;BME280;56605;51.516;6.742;2023-06-10T02:51:23;101250.81;;;18.29;100.00
31285;BME280;56605;51.516;6.742;2023-06-10T02:53:48;101249.34;;;18.12;100.00
31285;BME280;56605;51.516;6.742;2023-06-10T02:56:16;101246.63;;;18.06;100.00
31285;BME280;56605;51.516;6.742;2023-06-10T02:58:41;101244.16;;;18.18;100.00
31285;BME280;56605;51.516;6.742;2023-06-10T03:01:07;101245.81;;;18.19;100.00
31285;BME280;56605;51.516;6.742;2023-06-10T03:03:33;101242.28;;;18.18;100.00
31285;BME280;56605;51.516;6.742;2023-06-10T03:05:59;101245.41;;;18.22;100.00
31285;BME280;56605;51.516;6.742;2023-06-10T03:08:24;101245.22;;;18.17;100.00
31285;BME280;56605;51.516;6.742;2023-06-10T03:10:50;101241.25;;;18.26;100.00
31285;BME280;56605;51.516;6.742;2023-06-10T03:13:15;101247.09;;;18.30;100.00
31285;BME280;56605;51.516;6.742;2023-06-10T03:15:41;101249.16;;;18.28;100.00
31285;BME280;56605;51.516;6.742;2023-06-10T03:18:07;101240.44;;;18.32;100.00
31285;BME280;56605;51.516;6.742;2023-06-10T03:20:33;101251.25;;;18.25;100.00
31285;BME280;56605;51.516;6.742;2023-06-10T03:23:04;101249.16;;;18.28;100.00
31285;BME280;56605;51.516;6.742;2023-06-10T03:25:31;101252.09;;;18.33;100.00
31285;BME280;56605;51.516;6.742;2023-06-10T03:27:56;101258.94;;;18.42;100.00
31285;BME280;56605;51.516;6.742;2023-06-10T03:30:21;101256.88;;;18.24;100.00
31285;BME280;56605;51.516;6.742;2023-06-10T03:32:47;101255.41;;;18.35;100.00
31285;BME280;56605;51.516;6.742;2023-06-10T03:35:13;101267.88;;;18.29;100.00
31285;BME280;56605;51.516;6.742;2023-06-10T03:37:39;101258.50;;;18.18;100.00
31285;BME280;56605;51.516;6.742;2023-06-10T03:40:05;101259.97;;;18.28;100.00
31285;BME280;56605;51.516;6.742;2023-06-10T03:42:31;101267.25;;;18.34;100.00
31285;BME280;56605;51.516;6.742;2023-06-10T03:44:56;101272.00;;;18.18;100.00
31285;BME280;56605;51.516;6.742;2023-06-10T03:47:21;101270.38;;;18.24;100.00
31285;BME280;56605;51.516;6.742;2023-06-10T03:49:47;101272.88;;;18.25;100.00
31285;BME280;56605;51.516;6.742;2023-06-10T03:52:12;101274.28;;;18.15;100.00
31285;BME280;56605;51.516;6.742;2023-06-10T03:54:37;101276.34;;;18.12;100.00
31285;BME280;56605;51.516;6.742;2023-06-10T03:57:03;101278.44;;;18.10;100.00
31285;BME280;56605;51.516;6.742;2023-06-10T03:59:28;101272.59;;;18.07;100.00
31285;BME280;56605;51.516;6.742;2023-06-10T04:01:54;101283.16;;;17.95;100.00
31285;BME280;56605;51.516;6.742;2023-06-10T04:04:20;101275.75;;;18.10;100.00
31285;BME280;56605;51.516;6.742;2023-06-10T04:06:45;101279.03;;;17.99;100.00
31285;BME280;56605;51.516;6.742;2023-06-10T04:09:11;101281.06;;;17.90;100.00
31285;BME280;56605;51.516;6.742;2023-06-10T04:11:36;101270.69;;;17.94;100.00
31285;BME280;56605;51.516;6.742;2023-06-10T04:14:02;101279.19;;;17.84;100.00
31285;BME280;56605;51.516;6.742;2023-06-10T04:16:28;101275.03;;;17.88;100.00
31285;BME280;56605;51.516;6.742;2023-06-10T04:18:53;101279.19;;;17.91;100.00
31285;BME280;56605;51.516;6.742;2023-06-10T04:21:18;101281.28;;;17.95;100.00
31285;BME280;56605;51.516;6.742;2023-06-10T04:23:44;101280.66;;;17.93;100.00
31285;BME280;56605;51.516;6.742;2023-06-10T04:26:09;101285.66;;;17.96;100.00
31285;BME280;56605;51.516;6.742;2023-06-10T04:28:36;101289.41;;;18.02;100.00
31285;BME280;56605;51.516;6.742;2023-06-10T04:31:01;101287.53;;;18.03;100.00
31285;BME280;56605;51.516;6.742;2023-06-10T04:33:29;101296.09;;;18.06;100.00
31285;BME280;56605;51.516;6.742;2023-06-10T04:35:54;101291.34;;;18.15;100.00
31285;BME280;56605;51.516;6.742;2023-06-10T04:38:19;101301.34;;;18.28;100.00
31285;BME280;56605;51.516;6.742;2023-06-10T04:40:45;101302.38;;;18.41;100.00
31285;BME280;56605;51.516;6.742;2023-06-10T04:43:11;101298.47;;;18.43;100.00
31285;BME280;56605;51.516;6.742;2023-06-10T04:45:36;101299.09;;;18.52;100.00
31285;BME280;56605;51.516;6.742;2023-06-10T04:48:01;101296.38;;;18.59;100.00
31285;BME280;56605;51.516;6.742;2023-06-10T04:50:27;101295.75;;;18.63;100.00
31285;BME280;56605;51.516;6.742;2023-06-10T04:52:52;101294.09;;;18.69;100.00
31285;BME280;56605;51.516;6.742;2023-06-10T04:55:18;101300.31;;;18.76;100.00
31285;BME280;56605;51.516;6.742;2023-06-10T04:57:43;101299.06;;;18.79;100.00
31285;BME280;56605;51.516;6.742;2023-06-10T05:00:09;101298.84;;;18.81;100.00
31285;BME280;56605;51.516;6.742;2023-06-10T05:02:34;101297.59;;;18.90;100.00
31285;BME280;56605;51.516;6.742;2023-06-10T05:05:00;101297.81;;;18.75;100.00
31285;BME280;56605;51.516;6.742;2023-06-10T05:07:25;101297.59;;;18.90;100.00
31285;BME280;56605;51.516;6.742;2023-06-10T05:09:51;101293.47;;;18.74;100.00
31285;BME280;56605;51.516;6.742;2023-06-10T05:12:16;101303.81;;;19.04;100.00
31285;BME280;56605;51.516;6.742;2023-06-10T05:14:41;101296.56;;;18.91;100.00
31285;BME280;56605;51.516;6.742;2023-06-10T05:17:07;101296.38;;;19.13;100.00
31285;BME280;56605;51.516;6.742;2023-06-10T05:19:32;101291.97;;;19.05;100.00
31285;BME280;56605;51.516;6.742;2023-06-10T05:21:57;101303.56;;;19.33;100.00
31285;BME280;56605;51.516;6.742;2023-06-10T05:24:23;101304.84;;;19.23;100.00
31285;BME280;56605;51.516;6.742;2023-06-10T05:26:49;101300.66;;;19.34;100.00
31285;BME280;56605;51.516;6.742;2023-06-10T05:29:14;101304.22;;;19.35;100.00
31285;BME280;56605;51.516;6.742;2023-06-10T05:31:40;101303.97;;;19.50;100.00
31285;BME280;56605;51.516;6.742;2023-06-10T05:34:06;101300.78;;;19.60;100.00
31285;BME280;56605;51.516;6.742;2023-06-10T05:36:31;101310.00;;;19.45;100.00
31285;BME280;56605;51.516;6.742;2023-06-10T05:38:57;101304.09;;;19.62;100.00
31285;BME280;56605;51.516;6.742;2023-06-10T05:41:22;101307.38;;;19.71;100.00
31285;BME280;56605;51.516;6.742;2023-06-10T05:43:48;101317.13;;;19.85;100.00
31285;BME280;56605;51.516;6.742;2023-06-10T05:46:13;101305.88;;;19.88;100.00
31285;BME280;56605;51.516;6.742;2023-06-10T05:48:39;101317.50;;;20.02;100.00
31285;BME280;56605;51.516;6.742;2023-06-10T05:51:04;101312.31;;;19.94;100.00
31285;BME280;56605;51.516;6.742;2023-06-10T05:53:31;101313.75;;;19.97;100.00
31285;BME280;56605;51.516;6.742;2023-06-10T05:55:56;101322.03;;;20.09;100.00
31285;BME280;56605;51.516;6.742;2023-06-10T05:58:23;101313.66;;;20.17;100.00
31285;BME280;56605;51.516;6.742;2023-06-10T06:00:48;101314.91;;;20.14;100.00
31285;BME280;56605;51.516;6.742;2023-06-10T06:03:13;101317.13;;;20.24;100.00
31285;BME280;56605;51.516;6.742;2023-06-10T06:05:39;101313.63;;;20.24;100.00
31285;BME280;56605;51.516;6.742;2023-06-10T06:08:05;101319.28;;;20.15;100.00
31285;BME280;56605;51.516;6.742;2023-06-10T06:10:30;101318.53;;;20.34;100.00
31285;BME280;56605;51.516;6.742;2023-06-10T06:12:56;101322.47;;;20.38;100.00
31285;BME280;56605;51.516;6.742;2023-06-10T06:15:21;101315.25;;;20.57;100.00
31285;BME280;56605;51.516;6.742;2023-06-10T06:17:46;101318.13;;;20.62;100.00
31285;BME280;56605;51.516;6.742;2023-06-10T06:20:12;101315.53;;;20.74;100.00
31285;BME280;56605;51.516;6.742;2023-06-10T06:22:37;101314.69;;;20.74;100.00
31285;BME280;56605;51.516;6.742;2023-06-10T06:25:03;101318.78;;;20.83;98.26
31285;BME280;56605;51.516;6.742;2023-06-10T06:27:28;101319.25;;;20.80;97.93
31285;BME280;56605;51.516;6.742;2023-06-10T06:29:54;101321.25;;;20.85;99.16
31285;BME280;56605;51.516;6.742;2023-06-10T06:32:19;101320.41;;;20.91;98.46
31285;BME280;56605;51.516;6.742;2023-06-10T06:34:44;101323.97;;;20.85;98.89
31285;BME280;56605;51.516;6.742;2023-06-10T06:37:10;101322.44;;;20.96;98.61
31285;BME280;56605;51.516;6.742;2023-06-10T06:39:35;101333.41;;;21.08;96.91
31285;BME280;56605;51.516;6.742;2023-06-10T06:42:00;101328.81;;;21.08;96.22
31285;BME280;56605;51.516;6.742;2023-06-10T06:44:25;101337.28;;;21.19;95.63
31285;BME280;56605;51.516;6.742;2023-06-10T06:46:51;101335.59;;;21.18;94.17
31285;BME280;56605;51.516;6.742;2023-06-10T06:49:16;101331.22;;;21.35;93.95
31285;BME280;56605;51.516;6.742;2023-06-10T06:51:41;101338.19;;;21.50;93.22
31285;BME280;56605;51.516;6.742;2023-06-10T06:54:07;101335.63;;;21.36;94.17
31285;BME280;56605;51.516;6.742;2023-06-10T06:56:32;101336.88;;;21.34;93.48
31285;BME280;56605;51.516;6.742;2023-06-10T06:58:57;101332.28;;;21.53;93.80
31285;BME280;56605;51.516;6.742;2023-06-10T07:01:23;101340.63;;;21.39;92.94
31285;BME280;56605;51.516;6.742;2023-06-10T07:03:48;101339.84;;;21.70;91.77
31285;BME280;56605;51.516;6.742;2023-06-10T07:06:13;101334.03;;;21.85;91.40
31285;BME280;56605;51.516;6.742;2023-06-10T07:08:39;101348.31;;;21.80;92.03
31285;BME280;56605;51.516;6.742;2023-06-10T07:11:04;101341.03;;;21.92;88.83
31285;BME280;56605;51.516;6.742;2023-06-10T07:13:29;101340.88;;;21.87;89.29
31285;BME280;56605;51.516;6.742;2023-06-10T07:15:54;101344.44;;;22.19;89.03
31285;BME280;56605;51.516;6.742;2023-06-10T07:18:20;101343.44;;;22.01;89.05
31285;BME280;56605;51.516;6.742;2023-06-10T07:20:45;101345.31;;;22.00;89.75
31285;BME280;56605;51.516;6.742;2023-06-10T07:23:10;101339.06;;;22.00;88.91
31285;BME280;56605;51.516;6.742;2023-06-10T07:25:36;101348.81;;;22.20;89.32
31285;BME280;56605;51.516;6.742;2023-06-10T07:28:02;101339.69;;;22.45;89.18
31285;BME280;56605;51.516;6.742;2023-06-10T07:30:27;101347.44;;;22.29;87.27
31285;BME280;56605;51.516;6.742;2023-06-10T07:32:53;101337.72;;;22.21;86.30
31285;BME280;56605;51.516;6.742;2023-06-10T07:35:18;101335.97;;;22.27;87.68
31285;BME280;56605;51.516;6.742;2023-06-10T07:37:43;101340.13;;;22.29;86.81
31285;BME280;56605;51.516;6.742;2023-06-10T07:40:09;101335.50;;;22.42;87.25
31285;BME280;56605;51.516;6.742;2023-06-10T07:42:35;101339.50;;;22.70;85.95
31285;BME280;56605;51.516;6.742;2023-06-10T07:45:04;101341.97;;;22.72;85.73
31285;BME280;56605;51.516;6.742;2023-06-10T07:47:30;101338.56;;;22.88;84.00
31285;BME280;56605;51.516;6.742;2023-06-10T07:49:56;101342.22;;;23.18;83.51
31285;BME280;56605;51.516;6.742;2023-06-10T07:52:21;101343.78;;;23.38;81.86
31285;BME280;56605;51.516;6.742;2023-06-10T07:54:46;101339.03;;;23.09;80.49
31285;BME280;56605;51.516;6.742;2023-06-10T07:57:12;101338.66;;;23.41;80.26
31285;BME280;56605;51.516;6.742;2023-06-10T07:59:37;101338.47;;;23.72;79.43
31285;BME280;56605;51.516;6.742;2023-06-10T08:02:03;101336.97;;;23.64;80.26
31285;BME280;56605;51.516;6.742;2023-06-10T08:04:29;101331.22;;;23.37;81.31
31285;BME280;56605;51.516;6.742;2023-06-10T08:06:56;101340.56;;;23.29;81.26
31285;BME280;56605;51.516;6.742;2023-06-10T08:09:21;101332.16;;;23.30;81.60
31285;BME280;56605;51.516;6.742;2023-06-10T08:11:48;101337.50;;;23.25;81.78
31285;BME280;56605;51.516;6.742;2023-06-10T08:14:13;101334.59;;;23.56;78.76
31285;BME280;56605;51.516;6.742;2023-06-10T08:16:39;101335.28;;;23.63;77.96
31285;BME280;56605;51.516;6.742;2023-06-10T08:19:04;101339.81;;;23.58;79.28
31285;BME280;56605;51.516;6.742;2023-06-10T08:21:29;101339.63;;;23.88;77.55
31285;BME280;56605;51.516;6.742;2023-06-10T08:23:55;101347.13;;;24.10;75.67
31285;BME280;56605;51.516;6.742;2023-06-10T08:26:20;101336.34;;;24.67;74.63
31285;BME280;56605;51.516;6.742;2023-06-10T08:28:46;101347.78;;;24.64;71.91
31285;BME280;56605;51.516;6.742;2023-06-10T08:31:11;101341.47;;;25.15;69.80
31285;BME280;56605;51.516;6.742;2023-06-10T08:33:36;101350.00;;;24.84;71.81
31285;BME280;56605;51.516;6.742;2023-06-10T08:36:02;101344.69;;;25.12;73.37
31285;BME280;56605;51.516;6.742;2023-06-10T08:38:27;101356.84;;;26.38;67.29
31285;BME280;56605;51.516;6.742;2023-06-10T08:40:56;101350.53;;;25.20;68.30
31285;BME280;56605;51.516;6.742;2023-06-10T08:43:36;101342.22;;;26.00;65.95
31285;BME280;56605;51.516;6.742;2023-06-10T08:46:03;101351.47;;;25.71;67.81
31285;BME280;56605;51.516;6.742;2023-06-10T08:48:34;101348.03;;;24.97;68.31
31285;BME280;56605;51.516;6.742;2023-06-10T08:51:00;101342.94;;;25.23;68.09
31285;BME280;56605;51.516;6.742;2023-06-10T08:53:29;101341.06;;;25.68;68.39
31285;BME280;56605;51.516;6.742;2023-06-10T08:55:58;101352.41;;;26.32;66.69
31285;BME280;56605;51.516;6.742;2023-06-10T08:58:27;101346.53;;;28.01;60.69
31285;BME280;56605;51.516;6.742;2023-06-10T09:00:53;101346.75;;;27.84;60.72
31285;BME280;56605;51.516;6.742;2023-06-10T09:03:18;101344.50;;;27.06;63.99
31285;BME280;56605;51.516;6.742;2023-06-10T09:05:43;101340.59;;;27.56;64.46
31285;BME280;56605;51.516;6.742;2023-06-10T09:08:09;101348.03;;;26.64;67.56
31285;BME280;56605;51.516;6.742;2023-06-10T09:10:35;101340.16;;;26.40;68.28
31285;BME280;56605;51.516;6.742;2023-06-10T09:13:00;101340.56;;;26.26;68.76
31285;BME280;56605;51.516;6.742;2023-06-10T09:15:26;101336.03;;;25.82;71.50
31285;BME280;56605;51.516;6.742;2023-06-10T09:17:52;101331.31;;;25.32;72.57
31285;BME280;56605;51.516;6.742;2023-06-10T09:20:18;101330.59;;;25.60;73.25
31285;BME280;56605;51.516;6.742;2023-06-10T09:22:43;101332.06;;;26.93;67.97
31285;BME280;56605;51.516;6.742;2023-06-10T09:25:10;101332.91;;;26.56;68.29
31285;BME280;56605;51.516;6.742;2023-06-10T09:27:52;101340.16;;;26.73;68.28
31285;BME280;56605;51.516;6.742;2023-06-10T09:30:28;101328.69;;;27.24;64.39
31285;BME280;56605;51.516;6.742;2023-06-10T09:32:55;101332.84;;;26.51;69.31
31285;BME280;56605;51.516;6.742;2023-06-10T09:35:25;101336.22;;;27.55;65.38
31285;BME280;56605;51.516;6.742;2023-06-10T09:37:58;101324.91;;;29.54;58.02
31285;BME280;56605;51.516;6.742;2023-06-10T09:40:24;101329.69;;;27.02;64.40
31285;BME280;56605;51.516;6.742;2023-06-10T09:42:55;101338.88;;;27.34;65.31
31285;BME280;56605;51.516;6.742;2023-06-10T09:45:21;101335.50;;;29.16;58.90
31285;BME280;56605;51.516;6.742;2023-06-10T09:47:47;101336.53;;;29.41;57.20
31285;BME280;56605;51.516;6.742;2023-06-10T09:50:13;101328.56;;;29.39;55.20
31285;BME280;56605;51.516;6.742;2023-06-10T09:52:38;101339.31;;;30.31;53.15
31285;BME280;56605;51.516;6.742;2023-06-10T09:55:04;101328.97;;;28.28;55.51
31285;BME280;56605;51.516;6.742;2023-06-10T09:57:32;101326.47;;;30.21;52.58
31285;BME280;56605;51.516;6.742;2023-06-10T10:00:05;101327.53;;;27.68;57.12
31285;BME280;56605;51.516;6.742;2023-06-10T10:02:31;101320.47;;;28.19;57.13
31285;BME280;56605;51.516;6.742;2023-06-10T10:05:03;101326.28;;;28.54;56.56
31285;BME280;56605;51.516;6.742;2023-06-10T10:07:29;101322.13;;;28.15;56.80
31285;BME280;56605;51.516;6.742;2023-06-10T10:09:54;101325.09;;;27.88;56.57
31285;BME280;56605;51.516;6.742;2023-06-10T10:12:20;101327.53;;;27.73;57.51
31285;BME280;56605;51.516;6.742;2023-06-10T10:14:46;101320.13;;;29.15;55.65
31285;BME280;56605;51.516;6.742;2023-06-10T10:17:15;101316.91;;;28.81;56.37
31285;BME280;56605;51.516;6.742;2023-06-10T10:19:46;101328.69;;;29.03;53.29
31285;BME280;56605;51.516;6.742;2023-06-10T10:22:26;101309.66;;;29.27;51.84
31285;BME280;56605;51.516;6.742;2023-06-10T10:24:59;101320.13;;;30.21;51.70
31285;BME280;56605;51.516;6.742;2023-06-10T10:27:27;101314.31;;;30.57;49.53
31285;BME280;56605;51.516;6.742;2023-06-10T10:29:54;101312.31;;;29.43;52.66
31285;BME280;56605;51.516;6.742;2023-06-10T10:32:36;101314.09;;;29.13;50.50
31285;BME280;56605;51.516;6.742;2023-06-10T10:37:31;101308.63;;;30.08;48.69
31285;BME280;56605;51.516;6.742;2023-06-10T10:39:56;101320.00;;;30.66;47.56
31285;BME280;56605;51.516;6.742;2023-06-10T10:42:23;101312.47;;;30.12;47.13
31285;BME280;56605;51.516;6.742;2023-06-10T10:44:49;101308.44;;;29.44;49.30
31285;BME280;56605;51.516;6.742;2023-06-10T10:47:15;101307.06;;;29.57;48.74
31285;BME280;56605;51.516;6.742;2023-06-10T10:49:43;101307.25;;;28.89;50.06
31285;BME280;56605;51.516;6.742;2023-06-10T10:52:11;101300.31;;;29.18;47.93
31285;BME280;56605;51.516;6.742;2023-06-10T10:54:37;101301.31;;;29.43;48.69
31285;BME280;56605;51.516;6.742;2023-06-10T10:57:10;101298.09;;;29.30;48.74
31285;BME280;56605;51.516;6.742;2023-06-10T11:02:47;101297.97;;;31.40;44.26
31285;BME280;56605;51.516;6.742;2023-06-10T11:05:15;101303.09;;;31.27;42.75
31285;BME280;56605;51.516;6.742;2023-06-10T11:07:52;101290.41;;;30.18;44.86
31285;BME280;56605;51.516;6.742;2023-06-10T11:10:17;101286.88;;;29.72;45.73
31285;BME280;56605;51.516;6.742;2023-06-10T11:12:53;101284.31;;;29.81;46.29
31285;BME280;56605;51.516;6.742;2023-06-10T11:15:22;101287.38;;;30.79;43.59
31285;BME280;56605;51.516;6.742;2023-06-10T11:18:26;101281.84;;;30.24;43.50
31285;BME280;56605;51.516;6.742;2023-06-10T11:20:53;101278.50;;;30.28;43.69
31285;BME280;56605;51.516;6.742;2023-06-10T11:29:01;101279.75;;;30.41;43.70
31285;BME280;56605;51.516;6.742;2023-06-10T11:31:31;101278.22;;;30.59;44.00
31285;BME280;56605;51.516;6.742;2023-06-10T11:34:02;101277.47;;;30.78;43.20
31285;BME280;56605;51.516;6.742;2023-06-10T11:36:28;101288.56;;;30.97;41.86
31285;BME280;56605;51.516;6.742;2023-06-10T11:38:58;101270.09;;;32.32;39.74
31285;BME280;56605;51.516;6.742;2023-06-10T11:41:25;101264.28;;;32.00;40.92
31285;BME280;56605;51.516;6.742;2023-06-10T11:43:52;101272.44;;;30.55;42.29
31285;BME280;56605;51.516;6.742;2023-06-10T11:46:17;101273.91;;;30.77;41.20
31285;BME280;56605;51.516;6.742;2023-06-10T11:48:54;101267.16;;;31.32;41.06
31285;BME280;56605;51.516;6.742;2023-06-10T11:51:19;101270.44;;;30.91;42.60
31285;BME280;56605;51.516;6.742;2023-06-10T11:53:47;101273.91;;;31.02;41.82
31285;BME280;56605;51.516;6.742;2023-06-10T11:56:13;101265.13;;;31.19;41.08
31285;BME280;56605;51.516;6.742;2023-06-10T11:58:42;101268.78;;;30.65;41.12
31285;BME280;56605;51.516;6.742;2023-06-10T12:01:08;101275.34;;;30.69;41.44
31285;BME280;56605;51.516;6.742;2023-06-10T12:03:37;101257.25;;;29.98;42.17
31285;BME280;56605;51.516;6.742;2023-06-10T12:06:05;101261.31;;;31.39;41.24
31285;BME280;56605;51.516;6.742;2023-06-10T12:08:30;101263.69;;;30.23;40.13
31285;BME280;56605;51.516;6.742;2023-06-10T12:10:56;101255.75;;;30.46;41.14
31285;BME280;56605;51.516;6.742;2023-06-10T12:13:23;101262.75;;;30.87;40.69
31285;BME280;56605;51.516;6.742;2023-06-10T12:15:51;101252.75;;;33.16;37.13
31285;BME280;56605;51.516;6.742;2023-06-10T12:18:20;101248.19;;;32.22;38.06
31285;BME280;56605;51.516;6.742;2023-06-10T12:20:46;101246.09;;;30.98;37.43
31285;BME280;56605;51.516;6.742;2023-06-10T12:23:12;101252.84;;;30.62;37.59
31285;BME280;56605;51.516;6.742;2023-06-10T12:25:38;101241.81;;;30.62;38.00
31285;BME280;56605;51.516;6.742;2023-06-10T12:28:04;101240.94;;;31.73;36.92
31285;BME280;56605;51.516;6.742;2023-06-10T12:30:29;101245.38;;;31.31;37.27
31285;BME280;56605;51.516;6.742;2023-06-10T12:32:55;101225.84;;;30.34;39.26
31285;BME280;56605;51.516;6.742;2023-06-10T12:35:22;101242.47;;;31.22;38.85
31285;BME280;56605;51.516;6.742;2023-06-10T12:38:02;101232.66;;;31.93;39.27
31285;BME280;56605;51.516;6.742;2023-06-10T12:40:38;101235.72;;;31.72;37.37
31285;BME280;56605;51.516;6.742;2023-06-10T12:43:05;101237.94;;;31.31;38.09
31285;BME280;56605;51.516;6.742;2023-06-10T12:45:32;101228.63;;;31.85;37.63
31285;BME280;56605;51.516;6.742;2023-06-10T12:48:09;101234.53;;;30.77;37.54
31285;BME280;56605;51.516;6.742;2023-06-10T12:50:40;101232.13;;;31.13;37.94
31285;BME280;56605;51.516;6.742;2023-06-10T12:53:05;101229.63;;;32.08;36.68
31285;BME280;56605;51.516;6.742;2023-06-10T12:55:32;101223.66;;;31.48;35.50
31285;BME280;56605;51.516;6.742;2023-06-10T12:57:58;101230.19;;;31.72;37.25